Address 0x1458b85d88d0064e3c5fb2ff412d133bce8fcc26 1

 
 
Txn Hash Method
Block
From
To
Value [Txn Fee]
0x70e24e953379f59e4fce6d7cbc70858d49264977d5bdf7441fb6225b67ee1daeZap In228318642021-12-22 14:56:4329 days 1 hr ago0x1458b85d88d0064e3c5fb2ff412d133bce8fcc26OUT Zapper.Fi: Aave Zap In0.05 MATIC0.0129766530
0x17b9a3b9443e3728f51e39f7e9ab23a68e2b58cd9b1626d14535eaa387b0c238Zap In228318602021-12-22 14:56:3529 days 1 hr ago0x1458b85d88d0064e3c5fb2ff412d133bce8fcc26OUT Zapper.Fi: Quickswap Zap In0.05 MATIC0.0157495230
0x3370138b366897f00d623b0cf89485ea60912d48cfb6f20198253097690303180x415565b0228318472021-12-22 14:56:0929 days 1 hr ago0x1458b85d88d0064e3c5fb2ff412d133bce8fcc26OUT 0x: Exchange Proxy0.05 MATIC0.0070662330
0xe8da56450332827e002ee7e67955e0aca66034bc12c4649458b17a89c57db13eZap In225695142021-12-15 23:19:4635 days 17 hrs ago0x1458b85d88d0064e3c5fb2ff412d133bce8fcc26OUT Zapper.Fi: Aave Zap In0.05 MATIC0.0142052430
0x601796b4b9d14289b2867cdcff47c41380012ac1fd9d95e721703a69d1798048Zap In225694942021-12-15 23:19:0635 days 17 hrs ago0x1458b85d88d0064e3c5fb2ff412d133bce8fcc26OUT Zapper.Fi: Quickswap Zap In0.05 MATIC0.0148275330
0x73c9d11016a1517e600251f8b05d42f1d256bd8975e7a6cab0ffdd4591dbb49d0x415565b0225694762021-12-15 23:18:3035 days 17 hrs ago0x1458b85d88d0064e3c5fb2ff412d133bce8fcc26OUT 0x: Exchange Proxy0.08 MATIC0.0068719830
0xadeb5c531fcf7fcc28fddaad53d37698fdc3f9914898e834289b7fbe608d6e1bZap In220543742021-12-02 15:46:1049 days 42 mins ago0x1458b85d88d0064e3c5fb2ff412d133bce8fcc26OUT Zapper.Fi: Aave Zap In1.5 MATIC0.0159173730
0xa80d92787a9512385b84a1cbd85892306eb02e26399bc4c89fdf1d4f53132bb5Zap In220543442021-12-02 15:45:1049 days 43 mins ago0x1458b85d88d0064e3c5fb2ff412d133bce8fcc26OUT Zapper.Fi: Aave Zap In0.05 MATIC0.0137343930
0x49b31c1f17ab039c3a351e0854b686d0534627a7efcb7a83fc115798230bb627Zap In220543252021-12-02 15:44:2849 days 44 mins ago0x1458b85d88d0064e3c5fb2ff412d133bce8fcc26OUT Zapper.Fi: Quickswap Zap In0.05 MATIC0.0075968130
0xc99e832061330e59dfc20dcc2349d481fceca4e5203e70572a8a8fe0e14e192e0x415565b0220543072021-12-02 15:43:5249 days 44 mins ago0x1458b85d88d0064e3c5fb2ff412d133bce8fcc26OUT 0x: Exchange Proxy0.05 MATIC0.0070783830
0x6d1f39a8db0ec35016bd4760764e8865fae6af59ca545634f3e460c18e3174afTransfer219400182021-11-29 14:47:0052 days 1 hr ago0x1458b85d88d0064e3c5fb2ff412d133bce8fcc26OUT0x8c8148f093e755cfe27ad68e25bc822f709718651.5 MATIC0.0006330
0x175d991ea6c10402b32f418f64a3e379e75a2879dbed50c6026ea6210d0794e0Transfer219400042021-11-29 14:46:3252 days 1 hr ago0x1458b85d88d0064e3c5fb2ff412d133bce8fcc26OUT0xa7a56dbafd87be74e56d707bb2d63bcb4cf102711.5 MATIC0.0006330
0xd95a8e1e8325346f20da2ad46c39f556a86d82fdddf5a7f79fefe35ff8862733Transfer219398612021-11-29 14:38:5052 days 1 hr ago0x1458b85d88d0064e3c5fb2ff412d133bce8fcc26OUT0xa49f40e74ed3d695033a617409bf9b3e212e71431.5 MATIC0.0006330
0xff8dfd0995103ec373b84204fe750a2bba7d788893f1fa51dcae78bf889b3d41Transfer218333762021-11-26 20:08:5554 days 20 hrs ago0x1458b85d88d0064e3c5fb2ff412d133bce8fcc26OUT0xcd2ae10068caa5fb5e10193eb163a3d20302cf351.5 MATIC0.00004622.2
0x5c52c60f95c7b6819e964ac96062fa670e22167ce2e25c4033ddbc5cb226fc3dTransfer218323682021-11-26 19:27:5154 days 21 hrs ago0x1458b85d88d0064e3c5fb2ff412d133bce8fcc26OUT0xcd2ae10068caa5fb5e10193eb163a3d20302cf350 MATIC0.0006330
0x4d43ec38cb7bf0c185d245148a869f7b762d394b1b4c442fdcdfd7be91bbc0d2Transfer218323592021-11-26 19:27:3354 days 21 hrs ago0x1458b85d88d0064e3c5fb2ff412d133bce8fcc26OUT0x50a7cbf482e31cb7460312c49dbcaf5ff9b7c4f31.5 MATIC0.0006330
0x692cd5af0201bf9f0854923a91d233437bcfc7dda7e9c5777fa7b2ac580fd7d0Transfer218323432021-11-26 19:27:0154 days 21 hrs ago0x1458b85d88d0064e3c5fb2ff412d133bce8fcc26OUT0x2a4af816477178537352435eb37c1781c49d44e41.5 MATIC0.0006330
0x0803a9e23b752fa02022fd7967fddbc3fada99d5e9d770a6236e7232f88e0388Transfer218323322021-11-26 19:26:3954 days 21 hrs ago0x1458b85d88d0064e3c5fb2ff412d133bce8fcc26OUT0x96dbc75c876bc38f4b6f49fce62b3776b8203e931.5 MATIC0.0006330
0x139654c702c64f03d35c316859e221f77b3fc80275d8b739239288d4f5291f9cTransfer218323222021-11-26 19:26:1954 days 21 hrs ago0x1458b85d88d0064e3c5fb2ff412d133bce8fcc26OUT0xed60e1ec3fbbb5531334fd5b1e6d3d1ffb8635581.5 MATIC0.0006330
0xc94d3abed066196f5ea5d00d87baf656b37470fa607183818e8af0954bebe852Transfer218308492021-11-26 18:28:4554 days 22 hrs ago0x1458b85d88d0064e3c5fb2ff412d133bce8fcc26OUT0xa8b4bc7d759ecd1dbd70e744dae974635bf3f2fe1.5 MATIC0.0006330
0x8910f0dbfdc93de3ea815ffa6a284f94c3e1b063e96fbd0b872e743848cac354Transfer218308282021-11-26 18:27:5954 days 22 hrs ago0x1458b85d88d0064e3c5fb2ff412d133bce8fcc26OUT0x2ffa701eb911d84ac36d8b7e1a81c37bf3eaa9631.5 MATIC0.0006330
0x041a929844b9ee358dd1da7c0d20d432d299ce4472d3b74f85efa38e4e0f15acTransfer218308132021-11-26 18:27:2954 days 22 hrs ago0x1458b85d88d0064e3c5fb2ff412d133bce8fcc26OUT0x2ffa701eb911d84ac36d8b7e1a81c37bf3eaa9630 MATIC0.0006330
0x16dd8af4c11bf0c6c9b519cf301ec360a95896f81ee30e8d03e564a8bdca8802Transfer217957082021-11-25 19:46:1055 days 20 hrs ago0x1458b85d88d0064e3c5fb2ff412d133bce8fcc26OUT0x0040a4072ccc34bc53a3c0dc8b8f2ca8e8e9021b1.5 MATIC0.0006330
0x8972554f9057856ac91badf032f94ff57fb7895298c47ae959ff085f92ff7256Transfer217956932021-11-25 19:45:4055 days 20 hrs ago0x1458b85d88d0064e3c5fb2ff412d133bce8fcc26OUT0x2eeb2fcc50270b424cd7ebb94bef26320d3ef9c91.5 MATIC0.0006330
0x03bcbde08e634e4d1e61f794b0e920c7c38592375aeab23e4c1156a15c205051Transfer217956792021-11-25 19:45:1255 days 20 hrs ago0x1458b85d88d0064e3c5fb2ff412d133bce8fcc26OUT0xe8811f6a886642cfb45f873c2394335078e07eb61.5 MATIC0.0006330
[ Download CSV Export 
Latest 2 internal transactions
Parent Txn Hash Block From To Value
0x277dc1754b021f2fbf26f94c7705de7cd399726be37d7a71c87f639df8ee5786215250732021-11-18 18:37:1762 days 21 hrs ago 0xdb6f1920a889355780af7570773609bd8cb1f4980x1458b85d88d0064e3c5fb2ff412d133bce8fcc2626.558282788692151508 MATIC
0x5f0fca2f519c796aec6ddeaf51bf10f239e1cb4b2922036da756b335b99ccde8212283222021-11-11 1:07:1070 days 15 hrs ago 0xdb6f1920a889355780af7570773609bd8cb1f4980x1458b85d88d0064e3c5fb2ff412d133bce8fcc260.270688668470924556 MATIC
[ Download CSV Export 
Loading

Contract Name:
0 MATIC

Compiler Version
0

Optimization Enabled:
0 MATIC

Other Settings:
-NA-
Block Transaction Gas Used Reward
Age Block Fee Address BC Fee Address Voting Power Jailed Incoming
Block Uncle Number Difficulty Gas Used Reward
Loading
Loading
Make sure to use the "Vote Down" button for any spammy posts, and the "Vote Up" for interesting conversations.